Time;durP1;ratioP1;P1;durP2;ratioP2;P2;SDS_P1;SDS_P2;PMS_P1;PMS_P2;Temp;Humidity;BMP_temperature;BMP_pressure;BME280_temperature;BME280_humidity;BME280_pressure;Samples;Min_cycle;Max_cycle;Signal;HPM_P1;HPM_P2
2023/10/15 00:01:31;;;;;;;17.85;9.13;;;;;;;;;;6251678;28;20885;-77
2023/10/15 00:04:35;;;;;;;16.38;10.35;;;;;;;;;;6252715;28;20057;-76
2023/10/15 00:07:38;;;;;;;14.90;9.32;;;;;;;;;;6250637;28;20041;-76
2023/10/15 00:10:39;;;;;;;17.02;10.85;;;;;;;;;;6253435;28;20050;-74
2023/10/15 00:13:41;;;;;;;13.50;10.18;;;;;;;;;;6256288;28;20054;-75
2023/10/15 00:16:42;;;;;;;18.77;10.55;;;;;;;;;;6250006;28;20429;-76
2023/10/15 00:19:44;;;;;;;19.35;11.40;;;;;;;;;;6255248;28;20061;-74
2023/10/15 00:22:48;;;;;;;16.85;11.05;;;;;;;;;;6242403;28;20045;-74
2023/10/15 00:25:50;;;;;;;18.02;10.80;;;;;;;;;;6233953;28;20049;-74
2023/10/15 00:28:55;;;;;;;13.68;10.30;;;;;;;;;;6230016;28;20045;-76
2023/10/15 00:31:57;;;;;;;16.73;10.77;;;;;;;;;;6227807;28;20369;-75
2023/10/15 00:34:59;;;;;;;23.35;11.63;;;;;;;;;;6225018;28;20054;-74
2023/10/15 00:38:07;;;;;;;18.70;12.45;;;;;;;;;;6223178;28;20058;-75
2023/10/15 00:41:09;;;;;;;15.85;11.57;;;;;;;;;;6226766;28;20049;-76
2023/10/15 00:44:11;;;;;;;18.67;12.20;;;;;;;;;;6225760;28;20376;-76
2023/10/15 00:47:16;;;;;;;19.90;12.27;;;;;;;;;;6228891;28;20058;-75
2023/10/15 00:50:18;;;;;;;20.20;12.50;;;;;;;;;;6227274;28;20109;-76
2023/10/15 00:53:24;;;;;;;22.08;12.55;;;;;;;;;;6226209;28;20281;-75
2023/10/15 00:56:28;;;;;;;22.70;13.00;;;;;;;;;;6225631;28;20122;-75
2023/10/15 00:59:45;;;;;;;17.83;11.82;;;;;;;;;;6223124;28;20053;-76
2023/10/15 01:02:47;;;;;;;20.23;12.52;;;;;;;;;;6223955;28;20361;-75
2023/10/15 01:05:52;;;;;;;22.20;11.80;;;;;;;;;;6219319;28;20084;-76
2023/10/15 01:08:58;;;;;;;16.88;11.13;;;;;;;;;;6233256;28;20052;-75
2023/10/15 01:12:18;;;;;;;20.88;12.75;;;;;;;;;;6227715;28;20054;-75
2023/10/15 01:15:20;;;;;;;18.67;11.98;;;;;;;;;;6223792;28;20059;-76
2023/10/15 01:18:22;;;;;;;18.85;12.80;;;;;;;;;;6226293;28;20117;-75
2023/10/15 01:21:29;;;;;;;17.63;12.27;;;;;;;;;;6222498;28;20068;-76
2023/10/15 01:24:34;;;;;;;20.30;13.43;;;;;;;;;;6227058;28;20157;-76
2023/10/15 01:27:37;;;;;;;18.30;12.60;;;;;;;;;;6228776;28;20053;-75
2023/10/15 01:30:41;;;;;;;21.70;12.85;;;;;;;;;;6226375;28;20078;-77
2023/10/15 01:33:47;;;;;;;82.60;50.85;;;;;;;;;;6223581;28;20104;-77
2023/10/15 01:36:50;;;;;;;124.38;70.70;;;;;;;;;;6227830;28;20074;-79
2023/10/15 01:39:52;;;;;;;112.10;61.87;;;;;;;;;;6227557;28;20353;-78
2023/10/15 01:42:55;;;;;;;63.97;39.67;;;;;;;;;;6227212;28;20054;-78
2023/10/15 01:45:58;;;;;;;75.05;43.55;;;;;;;;;;6228841;28;20118;-77
2023/10/15 01:49:06;;;;;;;73.63;43.13;;;;;;;;;;6226653;28;20092;-77
2023/10/15 01:52:10;;;;;;;76.88;46.10;;;;;;;;;;6225599;28;20045;-77
2023/10/15 01:55:13;;;;;;;;;;;;;;;;;;6229612;28;20274;-79
2023/10/15 01:58:16;;;;;;;42.33;27.70;;;;;;;;;;6228002;28;19925;-77
2023/10/15 02:01:34;;;;;;;26.45;16.95;;;;;;;;;;6228670;28;20077;-76
2023/10/15 02:04:42;;;;;;;21.98;14.50;;;;;;;;;;6223276;28;20065;-76
2023/10/15 02:07:44;;;;;;;20.40;13.88;;;;;;;;;;6227596;28;20050;-76
2023/10/15 02:10:47;;;;;;;22.15;13.98;;;;;;;;;;6246853;28;20050;-76
2023/10/15 02:13:51;;;;;;;19.50;14.37;;;;;;;;;;6219420;28;20058;-76
2023/10/15 02:16:54;;;;;;;19.27;13.88;;;;;;;;;;6222602;28;20507;-77
2023/10/15 02:19:57;;;;;;;24.43;14.17;;;;;;;;;;6242823;28;20050;-76
2023/10/15 02:23:02;;;;;;;18.42;13.43;;;;;;;;;;6245895;28;20057;-76
2023/10/15 02:26:03;;;;;;;20.80;13.73;;;;;;;;;;6240581;28;20053;-76
2023/10/15 02:29:21;;;;;;;20.60;14.27;;;;;;;;;;6222814;28;20050;-77
2023/10/15 02:32:28;;;;;;;19.63;13.93;;;;;;;;;;6220048;28;20046;-75
2023/10/15 02:35:39;;;;;;;17.83;12.80;;;;;;;;;;6227439;28;20057;-77
2023/10/15 02:38:52;;;;;;;16.88;12.95;;;;;;;;;;6251419;28;20076;-74
2023/10/15 02:41:53;;;;;;;20.05;13.20;;;;;;;;;;6249044;28;20060;-77
2023/10/15 02:44:58;;;;;;;21.08;12.95;;;;;;;;;;6247397;28;20045;-78
2023/10/15 02:48:09;;;;;;;21.20;13.48;;;;;;;;;;6233662;28;20053;-75
2023/10/15 02:51:11;;;;;;;17.88;12.43;;;;;;;;;;6215733;28;20053;-77
2023/10/15 02:54:27;;;;;;;17.05;12.95;;;;;;;;;;6222860;28;20370;-76
2023/10/15 02:57:30;;;;;;;25.55;13.30;;;;;;;;;;6227034;28;20054;-77
2023/10/15 03:00:34;;;;;;;22.40;13.68;;;;;;;;;;6228909;28;20065;-77
2023/10/15 03:03:36;;;;;;;18.55;12.90;;;;;;;;;;6226460;28;20123;-77
2023/10/15 03:06:41;;;;;;;17.30;12.88;;;;;;;;;;6230344;28;20064;-77
2023/10/15 03:09:44;;;;;;;18.00;13.00;;;;;;;;;;6227012;28;20361;-77
2023/10/15 03:12:46;;;;;;;19.80;12.90;;;;;;;;;;6227826;28;20053;-77
2023/10/15 03:15:49;;;;;;;20.45;13.25;;;;;;;;;;6225292;28;20050;-77
2023/10/15 03:18:52;;;;;;;17.90;13.43;;;;;;;;;;6228510;28;20186;-77
2023/10/15 03:21:58;;;;;;;17.93;13.10;;;;;;;;;;6233725;28;20077;-76
2023/10/15 03:25:00;;;;;;;18.30;13.57;;;;;;;;;;6232398;28;20109;-77
2023/10/15 03:28:01;;;;;;;18.52;13.55;;;;;;;;;;6226823;28;20046;-76
2023/10/15 03:31:05;;;;;;;19.95;12.98;;;;;;;;;;6227678;28;20081;-77
2023/10/15 03:34:21;;;;;;;16.80;12.90;;;;;;;;;;6233809;28;20105;-77
2023/10/15 03:37:27;;;;;;;20.58;13.00;;;;;;;;;;6234740;28;20058;-76
2023/10/15 03:40:32;;;;;;;17.30;13.35;;;;;;;;;;6228685;28;20091;-77
2023/10/15 03:43:35;;;;;;;21.00;13.63;;;;;;;;;;6237222;28;20053;-77
2023/10/15 03:46:40;;;;;;;18.38;12.98;;;;;;;;;;6229116;28;20237;-77
2023/10/15 03:49:44;;;;;;;19.35;13.00;;;;;;;;;;6224601;28;20134;-77
2023/10/15 03:52:46;;;;;;;25.65;13.63;;;;;;;;;;6253259;28;20136;-77
2023/10/15 03:55:49;;;;;;;22.88;14.63;;;;;;;;;;6254367;28;20049;-77
2023/10/15 03:58:51;;;;;;;19.83;13.88;;;;;;;;;;6259228;28;20565;-76
2023/10/15 04:01:56;;;;;;;21.48;14.98;;;;;;;;;;6255751;28;20072;-77
2023/10/15 04:05:08;;;;;;;22.48;14.23;;;;;;;;;;6256258;28;20057;-77
2023/10/15 04:08:18;;;;;;;21.20;12.73;;;;;;;;;;6250107;28;20319;-77
2023/10/15 04:11:29;;;;;;;20.67;13.65;;;;;;;;;;6251439;28;20052;-77
2023/10/15 04:14:32;;;;;;;23.38;14.10;;;;;;;;;;6255112;28;20084;-77
2023/10/15 04:17:35;;;;;;;17.65;12.73;;;;;;;;;;6257920;28;20044;-77
2023/10/15 04:20:42;;;;;;;19.35;13.18;;;;;;;;;;6253267;28;20060;-77
2023/10/15 04:23:49;;;;;;;21.35;14.38;;;;;;;;;;6254747;28;20112;-77
2023/10/15 04:26:50;;;;;;;19.58;12.43;;;;;;;;;;6247738;28;20285;-77
2023/10/15 04:29:54;;;;;;;18.58;12.70;;;;;;;;;;6252958;28;20062;-77
2023/10/15 04:32:57;;;;;;;22.00;13.25;;;;;;;;;;6254067;28;20056;-77
2023/10/15 04:36:01;;;;;;;19.02;14.15;;;;;;;;;;6252045;28;20053;-77
2023/10/15 04:39:12;;;;;;;18.67;13.10;;;;;;;;;;6255022;28;20254;-77
2023/10/15 04:42:20;;;;;;;18.70;13.02;;;;;;;;;;6250965;28;20100;-77
2023/10/15 04:45:23;;;;;;;18.73;13.73;;;;;;;;;;6249494;28;20065;-77
2023/10/15 04:48:29;;;;;;;19.50;13.07;;;;;;;;;;6248208;28;20404;-77
2023/10/15 04:51:42;;;;;;;18.15;12.48;;;;;;;;;;6248011;28;20269;-77
2023/10/15 04:54:44;;;;;;;19.30;13.40;;;;;;;;;;6250059;28;20057;-76
2023/10/15 04:57:46;;;;;;;19.63;12.63;;;;;;;;;;6252317;28;20049;-76
2023/10/15 05:00:48;;;;;;;13.82;10.85;;;;;;;;;;6255883;28;20049;-76
2023/10/15 05:03:52;;;;;;;17.77;12.45;;;;;;;;;;6254282;28;20056;-77
2023/10/15 05:06:54;;;;;;;18.88;13.52;;;;;;;;;;6247537;28;20041;-77
2023/10/15 05:09:55;;;;;;;18.52;12.30;;;;;;;;;;6251056;28;20084;-77
2023/10/15 05:12:59;;;;;;;20.05;13.82;;;;;;;;;;6254636;28;20068;-77
2023/10/15 05:16:00;;;;;;;18.73;13.07;;;;;;;;;;6255474;28;20060;-76
2023/10/15 05:19:03;;;;;;;17.95;12.15;;;;;;;;;;6250689;28;20057;-76
2023/10/15 05:22:06;;;;;;;17.80;12.25;;;;;;;;;;6251485;28;20377;-77
2023/10/15 05:25:15;;;;;;;17.35;12.57;;;;;;;;;;6249744;28;20046;-77
2023/10/15 05:28:17;;;;;;;20.67;13.25;;;;;;;;;;6250327;28;20060;-77
2023/10/15 05:31:18;;;;;;;23.40;13.20;;;;;;;;;;6254764;28;20119;-76
2023/10/15 05:34:21;;;;;;;20.08;12.65;;;;;;;;;;6258448;28;21035;-76
2023/10/15 05:37:23;;;;;;;19.63;12.55;;;;;;;;;;6250502;28;20063;-76
2023/10/15 05:40:25;;;;;;;19.58;14.20;;;;;;;;;;6252007;28;20245;-77
2023/10/15 05:43:26;;;;;;;23.83;13.38;;;;;;;;;;6250072;28;20050;-76
2023/10/15 05:46:28;;;;;;;20.85;13.57;;;;;;;;;;6248733;28;20324;-76
2023/10/15 05:49:32;;;;;;;21.88;13.70;;;;;;;;;;6253918;28;20112;-75
2023/10/15 05:52:33;;;;;;;21.77;14.27;;;;;;;;;;6252257;28;20076;-77
2023/10/15 05:55:35;;;;;;;24.42;13.65;;;;;;;;;;6254782;28;20049;-77
2023/10/15 05:58:37;;;;;;;18.90;13.45;;;;;;;;;;6251503;28;20053;-77
2023/10/15 06:01:38;;;;;;;17.63;13.32;;;;;;;;;;6245639;28;20265;-77
2023/10/15 06:04:43;;;;;;;23.17;14.32;;;;;;;;;;6250826;28;20052;-76
2023/10/15 06:07:45;;;;;;;20.33;14.07;;;;;;;;;;6250797;28;20053;-77
2023/10/15 06:10:47;;;;;;;22.35;13.60;;;;;;;;;;6220554;28;20113;-77
2023/10/15 06:13:48;;;;;;;24.60;13.90;;;;;;;;;;6223120;28;20061;-77
2023/10/15 06:16:52;;;;;;;22.15;13.32;;;;;;;;;;6245590;28;20067;-77
2023/10/15 06:19:55;;;;;;;18.08;13.23;;;;;;;;;;6242424;28;20048;-76
2023/10/15 06:22:57;;;;;;;20.88;12.43;;;;;;;;;;6236843;28;20181;-76
2023/10/15 06:25:59;;;;;;;17.92;11.82;;;;;;;;;;6241482;28;20046;-76
2023/10/15 06:29:00;;;;;;;17.50;12.32;;;;;;;;;;6247126;28;20076;-76
2023/10/15 06:32:02;;;;;;;19.52;13.30;;;;;;;;;;6238730;28;20117;-76
2023/10/15 06:35:06;;;;;;;20.60;13.32;;;;;;;;;;6217467;28;20255;-76
2023/10/15 06:38:08;;;;;;;18.73;13.45;;;;;;;;;;6219781;28;20046;-75
2023/10/15 06:41:10;;;;;;;19.73;12.35;;;;;;;;;;6231850;28;20061;-76
2023/10/15 06:44:12;;;;;;;18.90;13.48;;;;;;;;;;6247603;28;20064;-77
2023/10/15 06:47:13;;;;;;;18.35;13.07;;;;;;;;;;6239091;28;20230;-76
2023/10/15 06:50:19;;;;;;;17.90;12.55;;;;;;;;;;6258460;28;20057;-77
2023/10/15 06:53:21;;;;;;;19.77;13.35;;;;;;;;;;6253869;28;20340;-76
2023/10/15 06:56:22;;;;;;;18.80;12.70;;;;;;;;;;6239248;28;20222;-77
2023/10/15 06:59:24;;;;;;;19.20;12.95;;;;;;;;;;6241977;28;20376;-75
2023/10/15 07:02:28;;;;;;;20.80;14.73;;;;;;;;;;6248978;28;20042;-77
2023/10/15 07:05:31;;;;;;;21.70;13.70;;;;;;;;;;6249134;28;20081;-76
2023/10/15 07:08:33;;;;;;;22.35;13.55;;;;;;;;;;6235913;28;20207;-77
2023/10/15 07:11:35;;;;;;;21.98;13.88;;;;;;;;;;6238871;28;20068;-76
2023/10/15 07:14:36;;;;;;;19.90;14.05;;;;;;;;;;6240854;28;20126;-75
2023/10/15 07:17:39;;;;;;;25.70;13.38;;;;;;;;;;6243255;28;20269;-76
2023/10/15 07:20:42;;;;;;;26.35;16.13;;;;;;;;;;6236844;28;20061;-77
2023/10/15 07:23:44;;;;;;;24.92;14.90;;;;;;;;;;6238339;28;20049;-80
2023/10/15 07:26:47;;;;;;;21.30;14.77;;;;;;;;;;6248700;28;20060;-75
2023/10/15 07:29:49;;;;;;;18.88;14.32;;;;;;;;;;6253654;28;20263;-76
2023/10/15 07:32:53;;;;;;;20.65;15.45;;;;;;;;;;6237748;28;20049;-75
2023/10/15 07:35:59;;;;;;;22.65;14.98;;;;;;;;;;6239165;28;20067;-75
2023/10/15 07:39:00;;;;;;;24.77;14.90;;;;;;;;;;6248154;28;20056;-76
2023/10/15 07:42:02;;;;;;;23.98;15.27;;;;;;;;;;6253613;28;20049;-74
2023/10/15 07:45:05;;;;;;;23.00;14.50;;;;;;;;;;6254437;28;20049;-74
2023/10/15 07:48:08;;;;;;;22.00;13.90;;;;;;;;;;6252509;28;20104;-79
2023/10/15 07:51:11;;;;;;;21.77;13.60;;;;;;;;;;6252357;28;20325;-76
2023/10/15 07:54:14;;;;;;;22.35;14.35;;;;;;;;;;6256072;28;20879;-75
2023/10/15 07:57:16;;;;;;;23.45;14.75;;;;;;;;;;6250559;28;20531;-76
2023/10/15 08:00:22;;;;;;;19.88;13.45;;;;;;;;;;6251494;28;20053;-77
2023/10/15 08:03:26;;;;;;;20.88;15.07;;;;;;;;;;6254703;28;20326;-77
2023/10/15 08:06:29;;;;;;;;;;;;;;;;;;6256220;28;20084;-74
2023/10/15 08:09:31;;;;;;;19.77;13.05;;;;;;;;;;6253040;28;19952;-74
2023/10/15 08:12:32;;;;;;;19.42;12.57;;;;;;;;;;6252852;28;20345;-74
2023/10/15 08:15:34;;;;;;;17.83;13.75;;;;;;;;;;6251687;28;20056;-75
2023/10/15 08:18:36;;;;;;;16.85;12.63;;;;;;;;;;6253021;28;20057;-75
2023/10/15 08:21:39;;;;;;;20.15;12.70;;;;;;;;;;6253662;28;20104;-75
2023/10/15 08:24:41;;;;;;;21.17;13.73;;;;;;;;;;6250569;28;20107;-77
2023/10/15 08:27:44;;;;;;;17.65;12.95;;;;;;;;;;6253342;28;20048;-74
2023/10/15 08:30:46;;;;;;;17.63;12.05;;;;;;;;;;6251074;28;20108;-75
2023/10/15 08:33:47;;;;;;;15.90;12.02;;;;;;;;;;6251077;28;20041;-75
2023/10/15 08:36:50;;;;;;;18.23;12.32;;;;;;;;;;6244513;28;20056;-74
2023/10/15 08:39:52;;;;;;;16.65;12.10;;;;;;;;;;6251357;28;20053;-75
2023/10/15 08:42:59;;;;;;;19.95;13.73;;;;;;;;;;6252803;28;20045;-75
2023/10/15 08:46:01;;;;;;;20.48;12.80;;;;;;;;;;6254861;28;20096;-75
2023/10/15 08:49:03;;;;;;;16.95;12.48;;;;;;;;;;6253809;28;20068;-77
2023/10/15 08:52:08;;;;;;;19.95;14.07;;;;;;;;;;6254343;28;20326;-76
2023/10/15 08:55:10;;;;;;;18.45;13.05;;;;;;;;;;6248831;28;20060;-75
2023/10/15 08:58:12;;;;;;;18.05;12.98;;;;;;;;;;6255094;28;20318;-75
2023/10/15 09:01:13;;;;;;;17.20;12.98;;;;;;;;;;6228089;28;20048;-76
2023/10/15 09:04:15;;;;;;;16.80;13.10;;;;;;;;;;6225699;28;20046;-75
2023/10/15 09:07:19;;;;;;;21.02;12.25;;;;;;;;;;6231902;28;20281;-75
2023/10/15 09:10:20;;;;;;;;;;;;;;;;;;6231947;28;20058;-75
2023/10/15 09:13:25;;;;;;;18.75;13.27;;;;;;;;;;6224710;28;20021;-75
2023/10/15 09:16:28;;;;;;;18.27;12.82;;;;;;;;;;6228307;28;20133;-76
2023/10/15 09:19:32;;;;;;;15.65;10.82;;;;;;;;;;6227857;28;20058;-76
2023/10/15 09:22:38;;;;;;;14.77;11.23;;;;;;;;;;6236409;28;20074;-75
2023/10/15 09:25:41;;;;;;;16.13;10.55;;;;;;;;;;6227960;28;20049;-76
2023/10/15 09:28:42;;;;;;;17.83;10.77;;;;;;;;;;6239649;28;20054;-75
2023/10/15 09:31:44;;;;;;;15.48;10.18;;;;;;;;;;6230919;28;20062;-76
2023/10/15 09:34:48;;;;;;;14.63;10.88;;;;;;;;;;6220948;28;20046;-75
2023/10/15 09:37:53;;;;;;;16.50;10.85;;;;;;;;;;6230961;28;20108;-75
2023/10/15 09:40:58;;;;;;;14.95;11.15;;;;;;;;;;6223703;28;20112;-76
2023/10/15 09:44:00;;;;;;;17.05;10.55;;;;;;;;;;6231240;28;20322;-75
2023/10/15 09:47:02;;;;;;;16.15;11.00;;;;;;;;;;6233251;28;20353;-77
2023/10/15 09:50:09;;;;;;;16.40;10.35;;;;;;;;;;6227423;28;20042;-77
2023/10/15 09:53:16;;;;;;;14.07;9.80;;;;;;;;;;6219189;28;20064;-75
2023/10/15 09:56:19;;;;;;;11.95;8.57;;;;;;;;;;6226734;28;20041;-75
2023/10/15 09:59:21;;;;;;;10.20;7.93;;;;;;;;;;6225920;28;20061;-77
2023/10/15 10:02:29;;;;;;;10.68;7.72;;;;;;;;;;6225326;28;20049;-77
2023/10/15 10:05:44;;;;;;;11.20;7.80;;;;;;;;;;6228353;28;20091;-76
2023/10/15 10:08:59;;;;;;;10.43;7.43;;;;;;;;;;6227019;28;20045;-76
2023/10/15 10:12:16;;;;;;;12.20;7.43;;;;;;;;;;6220909;28;20046;-76
2023/10/15 10:15:28;;;;;;;10.18;6.72;;;;;;;;;;6228994;28;20065;-76
2023/10/15 10:18:33;;;;;;;8.77;5.73;;;;;;;;;;6224842;28;20304;-76
2023/10/15 10:21:35;;;;;;;6.55;4.95;;;;;;;;;;6226483;28;20092;-76
2023/10/15 10:24:44;;;;;;;5.93;4.47;;;;;;;;;;6230760;28;20218;-73
2023/10/15 10:27:45;;;;;;;7.53;3.85;;;;;;;;;;6228881;28;20333;-76
2023/10/15 10:30:55;;;;;;;6.15;3.92;;;;;;;;;;6222856;28;20139;-77
2023/10/15 10:34:01;;;;;;;6.22;3.22;;;;;;;;;;6228857;28;20057;-77
2023/10/15 10:37:03;;;;;;;4.57;2.78;;;;;;;;;;6232461;28;20072;-78
2023/10/15 10:40:13;;;;;;;7.60;4.18;;;;;;;;;;6233400;28;20058;-77
2023/10/15 10:43:19;;;;;;;6.85;3.13;;;;;;;;;;6249856;28;20070;-76
2023/10/15 10:46:22;;;;;;;3.58;2.50;;;;;;;;;;6250872;28;20045;-76
2023/10/15 10:49:29;;;;;;;4.15;2.10;;;;;;;;;;6250243;28;20107;-76
2023/10/15 10:52:34;;;;;;;3.42;1.85;;;;;;;;;;6246385;28;20084;-76
2023/10/15 10:55:37;;;;;;;5.53;2.05;;;;;;;;;;6257366;28;20050;-75
2023/10/15 10:58:39;;;;;;;5.85;1.95;;;;;;;;;;6252474;28;20364;-77
2023/10/15 11:01:42;;;;;;;3.72;2.00;;;;;;;;;;6249411;28;20713;-78
2023/10/15 11:04:44;;;;;;;2.80;2.20;;;;;;;;;;6249403;28;20219;-77
2023/10/15 11:07:47;;;;;;;3.03;1.60;;;;;;;;;;6250451;28;20101;-77
2023/10/15 11:10:50;;;;;;;2.90;2.10;;;;;;;;;;6249007;28;20048;-77
2023/10/15 11:13:52;;;;;;;2.28;1.58;;;;;;;;;;6251410;28;20049;-78
2023/10/15 11:16:55;;;;;;;2.65;1.48;;;;;;;;;;6254578;28;20056;-77
2023/10/15 11:19:57;;;;;;;2.42;1.40;;;;;;;;;;6251834;28;20123;-78
2023/10/15 11:23:01;;;;;;;1.50;1.10;;;;;;;;;;6254042;28;20060;-78
2023/10/15 11:26:04;;;;;;;3.97;1.30;;;;;;;;;;6254371;28;20061;-78
2023/10/15 11:29:05;;;;;;;1.75;1.13;;;;;;;;;;6255299;28;20061;-81
2023/10/15 11:32:11;;;;;;;2.03;1.20;;;;;;;;;;6254162;28;20673;-79
2023/10/15 11:35:15;;;;;;;3.95;1.58;;;;;;;;;;6253000;28;20049;-78
2023/10/15 11:38:16;;;;;;;1.25;1.05;;;;;;;;;;6254535;28;20118;-80
2023/10/15 11:41:20;;;;;;;8.63;1.42;;;;;;;;;;6251391;28;20258;-78
2023/10/15 11:44:26;;;;;;;0.60;0.40;;;;;;;;;;6257448;28;20125;-79
2023/10/15 11:47:32;;;;;;;0.98;0.50;;;;;;;;;;6252198;28;20058;-78
2023/10/15 11:50:35;;;;;;;1.45;0.80;;;;;;;;;;6254144;28;20087;-86
2023/10/15 11:53:36;;;;;;;1.85;0.63;;;;;;;;;;6255696;28;20050;-79
2023/10/15 11:56:41;;;;;;;2.13;0.88;;;;;;;;;;6252492;28;20475;-78
2023/10/15 11:59:45;;;;;;;1.15;0.55;;;;;;;;;;6259699;28;20233;-77
2023/10/15 12:02:46;;;;;;;1.60;1.10;;;;;;;;;;6254504;28;20055;-78
2023/10/15 12:05:49;;;;;;;1.38;0.68;;;;;;;;;;6252523;28;20746;-76
2023/10/15 12:08:52;;;;;;;50.13;34.65;;;;;;;;;;6254596;28;20281;-83
2023/10/15 12:11:55;;;;;;;11.38;6.47;;;;;;;;;;6254793;28;20345;-79
2023/10/15 12:14:58;;;;;;;0.85;0.65;;;;;;;;;;6257077;28;20057;-79
2023/10/15 12:17:59;;;;;;;;;;;;;;;;;;6258356;28;20049;-78
2023/10/15 12:21:01;;;;;;;3.90;0.70;;;;;;;;;;6255152;28;19926;-79
2023/10/15 12:24:03;;;;;;;2.92;0.50;;;;;;;;;;6252885;28;20207;-79
2023/10/15 12:27:06;;;;;;;0.60;0.30;;;;;;;;;;6251951;28;20053;-78
2023/10/15 12:30:13;;;;;;;2.92;0.50;;;;;;;;;;6255107;28;20457;-79
2023/10/15 12:33:15;;;;;;;5.00;1.23;;;;;;;;;;6250800;28;20061;-79
2023/10/15 12:36:17;;;;;;;1.27;0.40;;;;;;;;;;6250981;28;20053;-78
2023/10/15 12:39:21;;;;;;;0.87;0.60;;;;;;;;;;6252053;28;20057;-78
2023/10/15 12:42:25;;;;;;;4.82;0.90;;;;;;;;;;6251998;28;20384;-78
2023/10/15 12:45:26;;;;;;;1.35;0.52;;;;;;;;;;6250223;28;20057;-78
2023/10/15 12:48:29;;;;;;;1.90;0.57;;;;;;;;;;6250059;28;20049;-79
2023/10/15 12:51:30;;;;;;;;;;;;;;;;;;6253502;28;20099;-78
2023/10/15 12:54:33;;;;;;;2.35;0.40;;;;;;;;;;6228677;28;19984;-78
2023/10/15 12:57:37;;;;;;;2.05;0.32;;;;;;;;;;6245835;28;20115;-79
2023/10/15 13:00:43;;;;;;;0.77;0.45;;;;;;;;;;6258280;28;20106;-79
2023/10/15 13:03:45;;;;;;;0.93;0.40;;;;;;;;;;6250600;28;20053;-79
2023/10/15 13:06:46;;;;;;;2.17;0.50;;;;;;;;;;6251013;28;20053;-79
2023/10/15 13:09:48;;;;;;;1.00;0.32;;;;;;;;;;6254054;28;20350;-79
2023/10/15 13:12:52;;;;;;;1.00;0.50;;;;;;;;;;6252466;28;20383;-79
2023/10/15 13:15:54;;;;;;;4.53;0.38;;;;;;;;;;6252874;28;20607;-78
2023/10/15 13:18:56;;;;;;;1.85;0.50;;;;;;;;;;6254626;28;20115;-79
2023/10/15 13:22:00;;;;;;;1.83;0.50;;;;;;;;;;6255215;28;20225;-79
2023/10/15 13:25:02;;;;;;;2.28;0.52;;;;;;;;;;6244911;28;20052;-79
2023/10/15 13:28:06;;;;;;;5.95;0.57;;;;;;;;;;6248027;28;20325;-79
2023/10/15 13:31:07;;;;;;;14.65;1.42;;;;;;;;;;6250683;28;20045;-79
2023/10/15 13:34:09;;;;;;;0.65;0.30;;;;;;;;;;6251102;28;20245;-79
2023/10/15 13:37:12;;;;;;;2.63;0.50;;;;;;;;;;6250797;28;20044;-79
2023/10/15 13:40:15;;;;;;;1.33;0.40;;;;;;;;;;6236264;28;20448;-79
2023/10/15 13:43:19;;;;;;;0.55;0.30;;;;;;;;;;6236181;28;20061;-80
2023/10/15 13:46:21;;;;;;;1.17;0.52;;;;;;;;;;6229301;28;20144;-79
2023/10/15 13:49:23;;;;;;;0.68;0.30;;;;;;;;;;6244371;28;20276;-79
2023/10/15 13:52:25;;;;;;;;;;;;;;;;;;6249546;28;20191;-79
2023/10/15 13:55:27;;;;;;;2.15;0.40;;;;;;;;;;6248670;28;19992;-87
2023/10/15 13:58:30;;;;;;;0.87;0.40;;;;;;;;;;6247841;28;20078;-71
2023/10/15 14:01:32;;;;;;;3.75;0.50;;;;;;;;;;6252225;28;20045;-72
2023/10/15 14:04:34;;;;;;;1.40;0.70;;;;;;;;;;6247144;28;20356;-72
2023/10/15 14:07:36;;;;;;;1.90;0.30;;;;;;;;;;6250916;28;20057;-72
2023/10/15 14:10:38;;;;;;;0.55;0.30;;;;;;;;;;6256170;28;20060;-72
2023/10/15 14:13:42;;;;;;;1.63;0.40;;;;;;;;;;6254974;28;20045;-71
2023/10/15 14:16:45;;;;;;;1.85;0.50;;;;;;;;;;6249264;28;20056;-71
2023/10/15 14:19:50;;;;;;;0.57;0.30;;;;;;;;;;6249948;28;20306;-71
2023/10/15 14:22:54;;;;;;;1.90;0.50;;;;;;;;;;6246573;28;20214;-72
2023/10/15 14:25:56;;;;;;;2.15;0.30;;;;;;;;;;6256297;28;20041;-71
2023/10/15 14:28:59;;;;;;;3.78;0.40;;;;;;;;;;6251453;28;20057;-73
2023/10/15 14:32:00;;;;;;;;;;;;;;;;;;6247693;28;20073;-74
2023/10/15 14:35:04;;;;;;;1.98;0.40;;;;;;;;;;6250853;28;19924;-73
2023/10/15 14:38:06;;;;;;;4.45;0.52;;;;;;;;;;6251068;28;20048;-73
2023/10/15 14:41:08;;;;;;;3.70;0.50;;;;;;;;;;6246393;28;20053;-72
2023/10/15 14:44:11;;;;;;;9.83;0.83;;;;;;;;;;6240499;28;20364;-73
2023/10/15 14:47:13;;;;;;;46.28;30.55;;;;;;;;;;6247990;28;20049;-73
2023/10/15 14:50:14;;;;;;;31.38;15.32;;;;;;;;;;6255359;28;20050;-71
2023/10/15 14:53:16;;;;;;;28.17;13.68;;;;;;;;;;6252437;28;20057;-72
2023/10/15 14:56:18;;;;;;;92.88;53.28;;;;;;;;;;6249221;28;20057;-74
2023/10/15 14:59:21;;;;;;;15.98;8.77;;;;;;;;;;6244766;28;20299;-72
2023/10/15 15:02:23;;;;;;;16.85;6.70;;;;;;;;;;6254637;28;20376;-72
2023/10/15 15:05:25;;;;;;;3.13;0.80;;;;;;;;;;6253796;28;20061;-72
2023/10/15 15:08:27;;;;;;;3.97;0.68;;;;;;;;;;6257522;28;20062;-72
2023/10/15 15:11:29;;;;;;;5.07;0.52;;;;;;;;;;6248487;28;20076;-72
2023/10/15 15:14:33;;;;;;;3.42;0.40;;;;;;;;;;6257901;28;20049;-71
2023/10/15 15:17:36;;;;;;;;;;;;;;;;;;6251486;28;20230;-71
2023/10/15 15:20:40;;;;;;;1.88;0.30;;;;;;;;;;6252147;28;19984;-72
2023/10/15 15:23:42;;;;;;;4.38;0.95;;;;;;;;;;6252571;28;20069;-75
2023/10/15 15:26:44;;;;;;;2.38;0.30;;;;;;;;;;6250210;28;20052;-71
2023/10/15 15:29:47;;;;;;;5.00;1.20;;;;;;;;;;6256296;28;20053;-71
2023/10/15 15:32:49;;;;;;;2.60;0.40;;;;;;;;;;6250952;28;20620;-72
2023/10/15 15:35:51;;;;;;;4.78;0.60;;;;;;;;;;6251557;28;20050;-71
2023/10/15 15:38:55;;;;;;;7.03;0.60;;;;;;;;;;6249192;28;20054;-71
2023/10/15 15:41:59;;;;;;;5.50;0.50;;;;;;;;;;6245887;28;20053;-71
2023/10/15 15:45:02;;;;;;;9.63;0.50;;;;;;;;;;6251982;28;20108;-74
2023/10/15 15:48:05;;;;;;;3.88;0.52;;;;;;;;;;6252992;28;20084;-71
2023/10/15 15:51:07;;;;;;;13.70;0.70;;;;;;;;;;6256975;28;20088;-72
2023/10/15 15:54:09;;;;;;;4.70;0.40;;;;;;;;;;6259371;28;20297;-72
2023/10/15 15:57:12;;;;;;;3.00;0.68;;;;;;;;;;6251428;28;20121;-71
2023/10/15 16:00:16;;;;;;;6.88;0.52;;;;;;;;;;6255369;28;20076;-71
2023/10/15 16:03:19;;;;;;;7.60;0.50;;;;;;;;;;6250101;28;20087;-73
2023/10/15 16:06:20;;;;;;;2.60;0.38;;;;;;;;;;6252538;28;20250;-72
2023/10/15 16:09:22;;;;;;;3.33;0.40;;;;;;;;;;6255633;28;20338;-72
2023/10/15 16:12:24;;;;;;;1.98;0.35;;;;;;;;;;6263121;28;20053;-72
2023/10/15 16:15:28;;;;;;;1.00;0.30;;;;;;;;;;6254053;28;20065;-72
2023/10/15 16:18:29;;;;;;;1.05;0.38;;;;;;;;;;6250787;28;20068;-72
2023/10/15 16:21:31;;;;;;;3.72;0.70;;;;;;;;;;6254894;28;20068;-73
2023/10/15 16:24:33;;;;;;;5.63;0.75;;;;;;;;;;6261024;28;20056;-72
2023/10/15 16:27:35;;;;;;;4.35;0.70;;;;;;;;;;6249865;28;20049;-71
2023/10/15 16:30:40;;;;;;;7.90;1.10;;;;;;;;;;6254206;28;20083;-71
2023/10/15 16:33:42;;;;;;;2.92;0.38;;;;;;;;;;6249351;28;20117;-71
2023/10/15 16:36:43;;;;;;;3.30;0.57;;;;;;;;;;6248986;28;20686;-70
2023/10/15 16:39:45;;;;;;;1.77;0.50;;;;;;;;;;6251650;28;20049;-71
2023/10/15 16:42:47;;;;;;;9.75;1.15;;;;;;;;;;6253343;28;20053;-72
2023/10/15 16:45:51;;;;;;;7.18;0.70;;;;;;;;;;6254357;28;20049;-70
2023/10/15 16:48:54;;;;;;;5.55;0.60;;;;;;;;;;6250576;28;20057;-73
2023/10/15 16:51:55;;;;;;;6.10;0.90;;;;;;;;;;6249266;28;20049;-70
2023/10/15 16:54:57;;;;;;;4.80;0.50;;;;;;;;;;6250722;28;20463;-70
2023/10/15 16:57:59;;;;;;;2.78;0.38;;;;;;;;;;6249551;28;20049;-70
2023/10/15 17:01:04;;;;;;;1.63;0.57;;;;;;;;;;6255586;28;20054;-70
2023/10/15 17:04:06;;;;;;;13.43;0.80;;;;;;;;;;6255668;28;20269;-71
2023/10/15 17:07:08;;;;;;;15.27;0.88;;;;;;;;;;6253615;28;20049;-70
2023/10/15 17:10:11;;;;;;;15.57;1.15;;;;;;;;;;6250327;28;20478;-71
2023/10/15 17:13:14;;;;;;;13.38;1.40;;;;;;;;;;6248438;28;20389;-70
2023/10/15 17:16:17;;;;;;;11.48;1.27;;;;;;;;;;6233470;28;20454;-70
2023/10/15 17:19:19;;;;;;;;;;;;;;;;;;6229648;28;20058;-71
2023/10/15 17:22:21;;;;;;;13.48;1.45;;;;;;;;;;6233523;28;19924;-71
2023/10/15 17:25:22;;;;;;;21.27;1.63;;;;;;;;;;6254481;28;20719;-71
2023/10/15 17:28:25;;;;;;;11.45;1.20;;;;;;;;;;6251082;28;20052;-71
2023/10/15 17:31:28;;;;;;;3.97;0.90;;;;;;;;;;6249728;28;20057;-70
2023/10/15 17:34:31;;;;;;;2.50;0.60;;;;;;;;;;6246773;28;20069;-70
2023/10/15 17:37:33;;;;;;;21.30;1.67;;;;;;;;;;6250334;28;20065;-71
2023/10/15 17:40:35;;;;;;;10.57;1.50;;;;;;;;;;6258800;28;20053;-70
2023/10/15 17:43:37;;;;;;;6.18;0.80;;;;;;;;;;6255351;28;20254;-70
2023/10/15 17:46:40;;;;;;;5.68;1.48;;;;;;;;;;6255191;28;20052;-71
2023/10/15 17:49:42;;;;;;;11.13;1.10;;;;;;;;;;6250524;28;20128;-71
2023/10/15 17:52:43;;;;;;;2.58;0.40;;;;;;;;;;6246362;28;20052;-69
2023/10/15 17:55:45;;;;;;;3.53;0.73;;;;;;;;;;6246954;28;20136;-70
2023/10/15 17:58:47;;;;;;;5.63;1.00;;;;;;;;;;6253292;28;20053;-71
2023/10/15 18:01:50;;;;;;;4.97;0.60;;;;;;;;;;6254632;28;20064;-70
2023/10/15 18:08:08;;;;;;;4.63;0.80;;;;;;;;;;6246236;28;20057;-71